Tropical Cyclones
[Index]
Main Index Home Page Stock Weather Photos Extreme Storms Discussion Storm News and Storm Chasing Reports Tropical Cyclones / Hurricanes / Typhoons Weather Data and Links Wild Fires / Bushfires Weather Observation Techniques Weather Picture Catalogue Tornado Pictures and Reports Stock Video Footage and DVDs for sale
Season 2008-2009 Tropical Cyclone ILSA Track Map
Season 2008-2009 Summaries (Operational Data): [AU] [SIO] [SPAC] [SH]
<<- Previous TC | 2008-2009 Season | Next TC ->>

click for intensity scale information  Lat/long Grid: Show Hide

 Date Labels: Show Hide

Operational Tropical Cyclone Data : JTWC Advisories | BoM Warnings

Name: ILSA
Number: 0922

17 Mar 2009 06:00 UTC to 27 Mar 2009 06:00 UTC

    date/time    lat    long     hPa   cat  kts
2009-03-17 06   12.1   118.5    1006         25          
2009-03-17 12   12.8   116.9    1002         30          
2009-03-17 18   13.2   115.2    1002         30          
2009-03-18 00   13.5   113.4    1000    1    35          
2009-03-18 06   13.6   111.9     991    2    50          
2009-03-18 12   13.8   110.8     984    2    60          
2009-03-18 18   14.0   109.4     984    2    60          
2009-03-19 00   15.2   109.0     976    3    70          
2009-03-19 06   16.0   107.7     968    3    80          
2009-03-19 12   16.3   106.8     958    4    90          
2009-03-19 18   16.4   106.0     958    4    90          
2009-03-20 00   16.2   105.2     966    3    80          
2009-03-20 06   16.2   104.2     967    3    80          
2009-03-20 12   15.9   103.7     966    3    80          
2009-03-20 18   16.0   103.0     966    3    80          
2009-03-21 00   16.0   102.4     966    3    80          
2009-03-21 06   16.0   101.5     967    3    80          
2009-03-21 12   16.1   100.9     966    3    80          
2009-03-21 18   16.3   100.1     967    3    80          
2009-03-22 00   16.2    99.7     970    3    75          
2009-03-22 06   16.6    98.8     975    3    70          
2009-03-22 12   16.9    98.0     981    3    65          
2009-03-22 18   17.2    97.2     981    3    65          
2009-03-23 00   17.3    95.7     992    2    50          
2009-03-23 06   17.5    94.4     993    2    50          
2009-03-23 12   18.0    93.3     996    1    45          
2009-03-23 18   18.4    92.0     998    1    40          
2009-03-24 00   19.3    90.1    1005         30          
2009-03-24 06   19.7    89.2    1000                     
2009-03-24 12   20.2    87.9    1000         26          
2009-03-24 18   20.3    86.1    1004         22          
2009-03-25 00   20.9    84.7    1004         22          
2009-03-25 06   21.6    83.5    1004         22          
2009-03-25 12   22.1    81.7    1004         22          
2009-03-25 18   23.2    80.6    1004         22          
2009-03-26 00   23.8    79.9    1004         22          
2009-03-26 06   24.0    79.3    1004         22          
2009-03-26 12   24.6    77.8    1004         22          
2009-03-26 18   24.9    77.0    1004         22          
2009-03-27 00   25.4    75.9    1004         22          
2009-03-27 06   25.9    75.8    1004         22          
Winds are 10-min average.

Tropical cyclone tracks developed by Michael Bath using operational warnings and advisories and Google Maps.


[Australian Severe Weather index] [Copyright Notice] [Email Contacts] [Search This Site] [Privacy Policy]
Document: tropical_cyclone_ilsa.htm Updated: 28 May 2013